Other Surface Observations
Issued by NWS Missoula, MT

Home | Current Version | Previous Version | Text Only | Print | Product List | Glossary On
Versions: 1 2 3 4 5 6 7 8 9 10 11 12 13 14 15 16 17 18 19 20 21 22 23 24 25 26 27 28 29 30 31 32 33 34 35 36 37 38 39 40 41 42 43 44 45 46 47 48 49 50
000
SXUS55 KMSO 270703
OSOMSO
MONTANA AWOS SUMMARY
NATIONAL WEATHER SERVICE MISSOULA MT
1203 AM MST FRI FEB 27 2015

Montana AWOS Reports

LAUREL      |K6S8 270655Z AUTO 00000KT 40SM M18/M23 A3008 RMK AO1 T11771227
ROUNDUP     |KRPX 270655Z AUTO 00000KT 40SM M16/M21 A3004 RMK AO1 T11551210
SCOBEY      |K9S2 270655Z AUTO 00000KT 40SM M18/M24 A3025 RMK AO1 T11771238
TWIN BRIDGES|K7S1 270655Z AUTO 01005KT 40SM M10/M16 A2994 RMK AO1 T10991160
MALTA       |KM75 270655Z AUTO 00000KT 40SM M16/M22 A3019 RMK AO1 T11601221




USA.gov is the U.S. government's official web portal to all federal, state and local government web resources and services.